createdAt,value
2023-03-22T00:07:03.041Z,100.00
2023-03-22T00:17:05.193Z,100.00
2023-03-22T00:27:07.462Z,100.00
2023-03-22T00:37:13.179Z,100.00
2023-03-22T00:47:15.548Z,100.00
2023-03-22T00:57:20.929Z,100.00
2023-03-22T01:07:25.888Z,100.00
2023-03-22T01:17:31.417Z,100.00
2023-03-22T01:27:36.824Z,100.00
2023-03-22T01:37:45.102Z,100.00
2023-03-22T01:48:01.937Z,100.00
2023-03-22T01:58:06.536Z,100.00
2023-03-22T02:08:18.412Z,100.00
2023-03-22T02:18:43.610Z,100.00
2023-03-22T02:29:22.610Z,100.00
2023-03-22T02:39:45.781Z,100.00
2023-03-22T02:50:05.502Z,100.00
2023-03-22T03:00:19.406Z,100.00
2023-03-22T03:10:23.134Z,100.00
2023-03-22T03:20:46.727Z,100.00
2023-03-22T03:30:57.725Z,100.00
2023-03-22T03:41:03.255Z,100.00
2023-03-22T03:51:10.779Z,100.00
2023-03-22T04:01:19.852Z,100.00
2023-03-22T04:11:42.468Z,100.00
2023-03-22T04:21:46.028Z,100.00
2023-03-22T04:31:48.706Z,100.00
2023-03-22T04:41:58.214Z,100.00
2023-03-22T04:52:08.130Z,100.00
2023-03-22T05:02:11.649Z,100.00
2023-03-22T05:12:18.485Z,100.00
2023-03-22T05:22:28.586Z,100.00
2023-03-22T05:32:33.053Z,100.00
2023-03-22T05:42:38.021Z,100.00
2023-03-22T05:52:52.368Z,100.00
2023-03-22T06:03:16.799Z,91.24
2023-03-22T06:13:22.571Z,90.29
2023-03-22T06:23:25.815Z,85.85
2023-03-22T06:33:29.122Z,83.84
2023-03-22T06:43:40.149Z,85.99
2023-03-22T06:53:55.896Z,89.18
2023-03-22T07:03:58.513Z,91.45
2023-03-22T07:14:05.637Z,87.54
2023-03-22T07:24:32.876Z,83.54
2023-03-22T07:34:37.312Z,79.81
2023-03-22T07:44:47.429Z,76.88
2023-03-22T07:54:57.944Z,75.38
2023-03-22T08:05:03.112Z,77.00
2023-03-22T08:15:18.468Z,76.92
2023-03-22T08:25:24.669Z,74.17
2023-03-22T08:35:31.469Z,75.09
2023-03-22T08:45:33.873Z,78.74
2023-03-22T08:55:45.084Z,81.32
2023-03-22T09:05:48.707Z,81.40
2023-03-22T09:15:55.510Z,82.32
2023-03-22T09:26:19.582Z,84.91
2023-03-22T09:36:32.517Z,84.92
2023-03-22T09:46:48.905Z,85.17
2023-03-22T09:57:05.903Z,82.73
2023-03-22T10:07:37.515Z,83.39
2023-03-22T10:17:44.916Z,80.02
2023-03-22T10:27:49.380Z,77.91
2023-03-22T10:37:58.035Z,78.98
2023-03-22T10:48:04.656Z,78.39
2023-03-22T10:58:16.127Z,78.65
2023-03-22T11:08:18.789Z,79.66
2023-03-22T11:18:23.958Z,79.95
2023-03-22T11:28:36.878Z,79.31
2023-03-22T11:38:44.937Z,80.10
2023-03-22T11:48:51.237Z,78.46
2023-03-22T11:59:09.926Z,78.42
2023-03-22T12:09:42.180Z,77.21
2023-03-22T12:19:49.856Z,75.97
2023-03-22T12:30:00.199Z,75.96
2023-03-22T12:40:28.054Z,75.41
2023-03-22T12:50:50.192Z,73.82
2023-03-22T13:01:02.065Z,72.30
2023-03-22T13:11:08.052Z,71.11
2023-03-22T13:21:29.973Z,72.41
2023-03-22T13:32:03.021Z,72.61
2023-03-22T13:42:40.971Z,73.44
2023-03-22T13:52:54.663Z,73.57
2023-03-22T14:03:10.855Z,74.33
2023-03-22T14:13:37.220Z,74.37
2023-03-22T14:54:10.389Z,74.93
2023-03-22T15:04:16.092Z,75.49
2023-03-22T15:14:20.948Z,75.79
2023-03-22T15:24:30.686Z,76.23
2023-03-22T15:34:33.511Z,76.47
2023-03-22T15:44:40.949Z,76.73
2023-03-22T15:54:59.947Z,77.36
2023-03-22T16:05:09.390Z,77.38
2023-03-22T16:15:26.389Z,78.22
2023-03-22T16:25:31.632Z,77.98
2023-03-22T16:35:37.367Z,78.98
2023-03-22T16:45:43.731Z,79.12
2023-03-22T16:55:48.436Z,79.20
2023-03-22T17:05:58.321Z,79.76
2023-03-22T17:16:04.941Z,79.85
2023-03-22T17:26:09.964Z,80.16
2023-03-22T17:36:15.974Z,80.32
2023-03-22T17:46:58.230Z,80.65
2023-03-22T17:57:13.852Z,80.85
2023-03-22T18:07:08.498Z,80.63
2023-03-22T18:17:15.829Z,80.67
2023-03-22T18:27:20.299Z,80.93
2023-03-22T18:37:25.901Z,81.36
2023-03-22T18:47:28.165Z,81.91
2023-03-22T18:57:32.422Z,82.19
2023-03-22T19:17:48.562Z,83.47
2023-03-22T19:27:52.048Z,84.05
2023-03-22T19:37:56.642Z,84.61
2023-03-22T19:48:04.186Z,85.13
2023-03-22T19:58:09.300Z,85.75
2023-03-22T20:08:16.968Z,85.83
2023-03-22T20:18:21.702Z,86.00
2023-03-22T20:28:24.408Z,85.96
2023-03-22T20:38:28.936Z,86.61
2023-03-22T20:48:36.535Z,87.43
2023-03-22T20:58:46.301Z,88.30
2023-03-22T21:08:48.591Z,88.81
2023-03-22T21:18:55.504Z,89.91
2023-03-22T21:28:59.009Z,91.06
2023-03-22T21:39:08.582Z,92.10
2023-03-22T21:49:26.286Z,92.66
2023-03-22T21:59:28.585Z,93.87
2023-03-22T22:09:36.847Z,94.52
2023-03-22T22:19:43.473Z,94.91
2023-03-22T22:29:48.093Z,95.97
2023-03-22T22:39:52.741Z,96.62
2023-03-22T22:49:59.668Z,97.76
2023-03-22T23:00:04.591Z,98.04
2023-03-22T23:10:20.729Z,99.02
2023-03-22T23:20:23.656Z,98.86
2023-03-22T23:30:25.885Z,98.36
2023-03-22T23:40:28.827Z,97.96
2023-03-22T23:50:34.170Z,96.63
